Airfield :
LOGIN :

Register | Disclaimer

   EN    FR    IT 

 










Legend :    VFR   Marginal VFR   IFR   Intensive IFR   Very Intensive IFR
Visi :
Ceiling :
>= 8 km
>= 3000ft
5 to 8 km
1000 to 3000 ft
1500m to 5 km
500 to 1000 ft
800 to 1500m
200 to 500 ft
< 800m
< 200 ft
Symbols :   Thunderstorms  Fog  Heavy snow  Heavy precipitations  Wind > 20 kt
SIGMETs :     Misc.  Thunderstorms  Icing  Turbulence  Mountain Waves  Volcanic Ashes







- Airport Elevation : 863 ft
- IATA code : ZAZ


LEZG - Zaragoza Aragon

CURRENT METAR :
  • 250330Z 30006KT 9999 -RA FEW008 BKN060 BKN070 12/11 Q1005

EXPIRED METARs :
  • 250300Z 29012KT 250V320 7000 -RA SCT050 BKN060 BKN070 13/11 Q1005
  • 250230Z 16009KT 9999 FEW060 BKN080 15/10 Q1003
  • 250130Z 10008KT 9999 FEW060 BKN080 14/10 Q1003
  • 250100Z 11009KT 080V140 9999 FEW060 BKN080 14/11 Q1004

TAF AMD TAF LEZG
Valid from the 25 at 03:00 until the 26 at 00:00 UTC


250304Z 2503/2524 16006KT 9999 FEW030 TX19/2514Z TN11/2506Z
PROB40
TEMPO 2504/2506 4000 SHRA FEW040TCU
BECMG 2503/2505 24010KT
TEMPO 2512/2516 24018G29KT 3000 TSRA FEW030CB BKN040
TEMPO 2522/2524 25015KT
No reported NOTAMs for that airfield.



MET'MAP, your aeronautical weather chart ! - Copyright ORBIFLY December 2007 - Disclaimer

ORBIFLY MET'MAP TEAM :

Programming & Development : Alexandra Zaïnal
Concept & Development : Baudouin d'Aumeries
Co-Development & Prog : Marc-Olivier Méhu
Technical & hardware support : Manuel Goepfert

Contact : metmap@orbifly.com




SOURCES & CREDITS :

   NOAA